sensor_id;sensor_type;location;lat;lon;timestamp;pressure;altitude;pressure_sealevel;temperature;humidity
59170;BME280;52474;52.236;5.114;2022-07-23T00:00:09;102015.88;;;14.92;100.00
59170;BME280;52474;52.236;5.114;2022-07-23T00:02:35;102008.63;;;14.82;100.00
59170;BME280;52474;52.236;5.114;2022-07-23T00:05:01;102004.69;;;14.77;100.00
59170;BME280;52474;52.236;5.114;2022-07-23T00:07:27;102001.59;;;14.81;100.00
59170;BME280;52474;52.236;5.114;2022-07-23T00:09:53;102013.59;;;14.87;100.00
59170;BME280;52474;52.236;5.114;2022-07-23T00:12:19;102007.06;;;14.80;100.00
59170;BME280;52474;52.236;5.114;2022-07-23T00:14:45;101988.06;;;14.73;100.00
59170;BME280;52474;52.236;5.114;2022-07-23T00:17:10;101974.94;;;14.60;100.00
59170;BME280;52474;52.236;5.114;2022-07-23T00:19:36;102001.41;;;14.73;100.00
59170;BME280;52474;52.236;5.114;2022-07-23T00:22:02;102006.16;;;14.70;100.00
59170;BME280;52474;52.236;5.114;2022-07-23T00:24:28;102005.56;;;14.66;100.00
59170;BME280;52474;52.236;5.114;2022-07-23T00:26:54;102008.75;;;14.60;100.00
59170;BME280;52474;52.236;5.114;2022-07-23T00:29:20;102000.50;;;14.52;100.00
59170;BME280;52474;52.236;5.114;2022-07-23T00:31:45;101982.66;;;14.43;100.00
59170;BME280;52474;52.236;5.114;2022-07-23T00:34:11;102003.31;;;14.50;100.00
59170;BME280;52474;52.236;5.114;2022-07-23T00:36:37;101991.94;;;14.48;100.00
59170;BME280;52474;52.236;5.114;2022-07-23T00:39:03;101996.53;;;14.46;100.00
59170;BME280;52474;52.236;5.114;2022-07-23T00:41:29;101994.25;;;14.42;100.00
59170;BME280;52474;52.236;5.114;2022-07-23T00:43:55;101992.69;;;14.39;100.00
59170;BME280;52474;52.236;5.114;2022-07-23T00:46:21;101993.69;;;14.38;100.00
59170;BME280;52474;52.236;5.114;2022-07-23T00:48:48;101991.03;;;14.38;100.00
59170;BME280;52474;52.236;5.114;2022-07-23T00:51:17;101987.25;;;14.41;100.00
59170;BME280;52474;52.236;5.114;2022-07-23T00:53:44;101984.13;;;14.35;100.00
59170;BME280;52474;52.236;5.114;2022-07-23T00:56:10;101964.94;;;14.21;100.00
59170;BME280;52474;52.236;5.114;2022-07-23T00:58:36;101977.47;;;14.30;100.00
59170;BME280;52474;52.236;5.114;2022-07-23T01:01:03;101981.47;;;14.35;100.00
59170;BME280;52474;52.236;5.114;2022-07-23T01:03:29;101993.22;;;14.33;100.00
59170;BME280;52474;52.236;5.114;2022-07-23T01:05:55;101987.09;;;14.10;100.00
59170;BME280;52474;52.236;5.114;2022-07-23T01:08:22;101992.13;;;13.92;100.00
59170;BME280;52474;52.236;5.114;2022-07-23T01:10:48;101985.13;;;13.80;100.00
59170;BME280;52474;52.236;5.114;2022-07-23T01:13:14;101965.31;;;13.72;100.00
59170;BME280;52474;52.236;5.114;2022-07-23T01:15:40;101969.63;;;13.85;100.00
59170;BME280;52474;52.236;5.114;2022-07-23T01:18:07;101959.13;;;13.83;100.00
59170;BME280;52474;52.236;5.114;2022-07-23T01:20:35;101951.25;;;13.82;100.00
59170;BME280;52474;52.236;5.114;2022-07-23T01:23:01;101953.41;;;13.88;100.00
59170;BME280;52474;52.236;5.114;2022-07-23T01:25:27;101960.78;;;13.95;100.00
59170;BME280;52474;52.236;5.114;2022-07-23T01:27:56;101958.69;;;13.99;100.00
59170;BME280;52474;52.236;5.114;2022-07-23T01:30:22;101958.59;;;14.01;100.00
59170;BME280;52474;52.236;5.114;2022-07-23T01:32:49;101963.03;;;14.00;100.00
59170;BME280;52474;52.236;5.114;2022-07-23T01:35:14;101968.53;;;13.99;100.00
59170;BME280;52474;52.236;5.114;2022-07-23T01:37:41;101967.78;;;13.96;100.00
59170;BME280;52474;52.236;5.114;2022-07-23T01:40:08;101957.03;;;13.98;100.00
59170;BME280;52474;52.236;5.114;2022-07-23T01:42:34;101953.75;;;13.94;100.00
59170;BME280;52474;52.236;5.114;2022-07-23T01:45:00;101958.25;;;13.94;100.00
59170;BME280;52474;52.236;5.114;2022-07-23T01:47:26;101959.91;;;13.95;100.00
59170;BME280;52474;52.236;5.114;2022-07-23T01:49:54;101964.50;;;13.93;100.00
59170;BME280;52474;52.236;5.114;2022-07-23T01:52:20;101959.44;;;13.90;100.00
59170;BME280;52474;52.236;5.114;2022-07-23T01:54:48;101963.09;;;13.78;100.00
59170;BME280;52474;52.236;5.114;2022-07-23T01:57:14;101945.25;;;13.46;100.00
59170;BME280;52474;52.236;5.114;2022-07-23T01:59:40;101965.34;;;13.39;100.00
59170;BME280;52474;52.236;5.114;2022-07-23T02:02:07;101967.19;;;13.27;100.00
59170;BME280;52474;52.236;5.114;2022-07-23T02:04:33;101963.13;;;13.21;100.00
59170;BME280;52474;52.236;5.114;2022-07-23T02:07:03;101959.53;;;13.22;100.00
59170;BME280;52474;52.236;5.114;2022-07-23T02:09:29;101968.25;;;13.24;100.00
59170;BME280;52474;52.236;5.114;2022-07-23T02:11:54;101966.78;;;13.20;100.00
59170;BME280;52474;52.236;5.114;2022-07-23T02:14:20;101972.19;;;13.19;100.00
59170;BME280;52474;52.236;5.114;2022-07-23T02:16:45;101966.06;;;13.07;100.00
59170;BME280;52474;52.236;5.114;2022-07-23T02:19:11;101970.38;;;12.97;100.00
59170;BME280;52474;52.236;5.114;2022-07-23T02:21:37;101968.59;;;12.97;100.00
59170;BME280;52474;52.236;5.114;2022-07-23T02:24:04;101948.97;;;12.87;100.00
59170;BME280;52474;52.236;5.114;2022-07-23T02:26:29;101963.25;;;12.97;100.00
59170;BME280;52474;52.236;5.114;2022-07-23T02:28:58;101963.13;;;12.99;100.00
59170;BME280;52474;52.236;5.114;2022-07-23T02:31:24;101967.50;;;13.00;100.00
59170;BME280;52474;52.236;5.114;2022-07-23T02:33:49;101962.03;;;13.01;100.00
59170;BME280;52474;52.236;5.114;2022-07-23T02:36:16;101975.69;;;12.97;100.00
59170;BME280;52474;52.236;5.114;2022-07-23T02:38:42;101963.13;;;12.87;100.00
59170;BME280;52474;52.236;5.114;2022-07-23T02:41:09;101981.94;;;12.84;100.00
59170;BME280;52474;52.236;5.114;2022-07-23T02:43:35;101972.50;;;12.58;100.00
59170;BME280;52474;52.236;5.114;2022-07-23T02:46:00;101985.16;;;12.54;100.00
59170;BME280;52474;52.236;5.114;2022-07-23T02:48:26;101991.78;;;12.49;100.00
59170;BME280;52474;52.236;5.114;2022-07-23T02:50:52;101995.03;;;12.52;100.00
59170;BME280;52474;52.236;5.114;2022-07-23T02:53:23;101998.66;;;12.51;100.00
59170;BME280;52474;52.236;5.114;2022-07-23T02:55:49;101998.66;;;12.51;100.00
59170;BME280;52474;52.236;5.114;2022-07-23T02:58:14;101997.59;;;12.65;100.00
59170;BME280;52474;52.236;5.114;2022-07-23T03:00:40;101994.25;;;12.74;100.00
59170;BME280;52474;52.236;5.114;2022-07-23T03:03:06;101987.25;;;12.73;100.00
59170;BME280;52474;52.236;5.114;2022-07-23T03:05:33;102000.47;;;12.86;100.00
59170;BME280;52474;52.236;5.114;2022-07-23T03:07:59;101997.06;;;12.84;100.00
59170;BME280;52474;52.236;5.114;2022-07-23T03:10:25;102004.31;;;12.82;100.00
59170;BME280;52474;52.236;5.114;2022-07-23T03:12:51;101985.06;;;12.67;100.00
59170;BME280;52474;52.236;5.114;2022-07-23T03:15:17;102007.19;;;12.67;100.00
59170;BME280;52474;52.236;5.114;2022-07-23T03:17:43;102002.38;;;12.73;100.00
59170;BME280;52474;52.236;5.114;2022-07-23T03:20:09;101983.13;;;12.69;100.00
59170;BME280;52474;52.236;5.114;2022-07-23T03:22:35;102002.00;;;12.77;100.00
59170;BME280;52474;52.236;5.114;2022-07-23T03:25:03;101976.97;;;12.68;100.00
59170;BME280;52474;52.236;5.114;2022-07-23T03:27:33;101974.31;;;12.68;100.00
59170;BME280;52474;52.236;5.114;2022-07-23T03:29:59;101996.81;;;12.76;100.00
59170;BME280;52474;52.236;5.114;2022-07-23T03:32:25;101998.84;;;12.72;100.00
59170;BME280;52474;52.236;5.114;2022-07-23T03:34:51;102001.75;;;12.69;100.00
59170;BME280;52474;52.236;5.114;2022-07-23T03:37:18;101993.75;;;12.69;100.00
59170;BME280;52474;52.236;5.114;2022-07-23T03:39:45;101994.59;;;12.70;100.00
59170;BME280;52474;52.236;5.114;2022-07-23T03:42:11;101987.94;;;12.64;100.00
59170;BME280;52474;52.236;5.114;2022-07-23T03:44:37;101998.72;;;12.74;100.00
59170;BME280;52474;52.236;5.114;2022-07-23T03:47:04;101988.34;;;12.82;100.00
59170;BME280;52474;52.236;5.114;2022-07-23T03:49:31;101986.31;;;12.85;100.00
59170;BME280;52474;52.236;5.114;2022-07-23T03:51:57;101980.41;;;12.93;100.00
59170;BME280;52474;52.236;5.114;2022-07-23T03:54:22;101949.94;;;12.86;100.00
59170;BME280;52474;52.236;5.114;2022-07-23T03:56:48;101975.13;;;13.04;100.00
59170;BME280;52474;52.236;5.114;2022-07-23T03:59:14;101964.34;;;13.06;100.00
59170;BME280;52474;52.236;5.114;2022-07-23T04:01:40;101969.06;;;13.14;100.00
59170;BME280;52474;52.236;5.114;2022-07-23T04:04:05;101967.03;;;13.17;100.00
59170;BME280;52474;52.236;5.114;2022-07-23T04:06:32;101974.03;;;13.18;100.00
59170;BME280;52474;52.236;5.114;2022-07-23T04:08:58;101955.84;;;12.89;100.00
59170;BME280;52474;52.236;5.114;2022-07-23T04:11:24;101978.72;;;12.92;100.00
59170;BME280;52474;52.236;5.114;2022-07-23T04:13:50;101955.81;;;12.56;100.00
59170;BME280;52474;52.236;5.114;2022-07-23T04:16:16;101979.09;;;12.52;100.00
59170;BME280;52474;52.236;5.114;2022-07-23T04:18:41;101981.66;;;12.54;100.00
59170;BME280;52474;52.236;5.114;2022-07-23T04:21:15;101991.09;;;12.58;100.00
59170;BME280;52474;52.236;5.114;2022-07-23T04:23:41;101993.28;;;12.64;100.00
59170;BME280;52474;52.236;5.114;2022-07-23T04:26:06;101993.53;;;12.72;100.00
59170;BME280;52474;52.236;5.114;2022-07-23T04:28:33;101983.63;;;12.74;100.00
59170;BME280;52474;52.236;5.114;2022-07-23T04:31:00;101985.47;;;12.85;100.00
59170;BME280;52474;52.236;5.114;2022-07-23T04:33:27;101994.31;;;12.97;100.00
59170;BME280;52474;52.236;5.114;2022-07-23T04:35:56;101990.59;;;13.10;100.00
59170;BME280;52474;52.236;5.114;2022-07-23T04:38:22;101960.13;;;13.03;100.00
59170;BME280;52474;52.236;5.114;2022-07-23T04:40:50;101972.44;;;13.16;100.00
59170;BME280;52474;52.236;5.114;2022-07-23T04:43:16;101995.31;;;13.18;100.00
59170;BME280;52474;52.236;5.114;2022-07-23T04:45:47;101989.13;;;13.06;100.00
59170;BME280;52474;52.236;5.114;2022-07-23T04:48:13;102010.66;;;13.15;100.00
59170;BME280;52474;52.236;5.114;2022-07-23T04:50:40;102008.00;;;13.15;100.00
59170;BME280;52474;52.236;5.114;2022-07-23T04:53:14;102009.50;;;13.30;100.00
59170;BME280;52474;52.236;5.114;2022-07-23T04:55:41;101996.69;;;13.35;100.00
59170;BME280;52474;52.236;5.114;2022-07-23T04:58:07;101994.63;;;13.50;100.00
59170;BME280;52474;52.236;5.114;2022-07-23T05:00:33;102001.00;;;13.70;100.00
59170;BME280;52474;52.236;5.114;2022-07-23T05:02:58;102007.91;;;13.84;100.00
59170;BME280;52474;52.236;5.114;2022-07-23T05:05:24;101990.47;;;13.80;100.00
59170;BME280;52474;52.236;5.114;2022-07-23T05:07:53;101999.63;;;13.98;100.00
59170;BME280;52474;52.236;5.114;2022-07-23T05:10:19;101998.13;;;14.05;100.00
59170;BME280;52474;52.236;5.114;2022-07-23T05:12:45;101991.47;;;14.11;100.00
59170;BME280;52474;52.236;5.114;2022-07-23T05:15:10;102008.75;;;14.28;100.00
59170;BME280;52474;52.236;5.114;2022-07-23T05:17:36;101996.81;;;14.43;100.00
59170;BME280;52474;52.236;5.114;2022-07-23T05:20:10;101996.28;;;14.60;100.00
59170;BME280;52474;52.236;5.114;2022-07-23T05:22:36;101980.22;;;14.72;100.00
59170;BME280;52474;52.236;5.114;2022-07-23T05:25:02;101996.72;;;15.08;100.00
59170;BME280;52474;52.236;5.114;2022-07-23T05:27:30;101992.94;;;15.41;100.00
59170;BME280;52474;52.236;5.114;2022-07-23T05:29:56;101996.13;;;15.65;100.00
59170;BME280;52474;52.236;5.114;2022-07-23T05:32:22;101988.31;;;15.83;100.00
59170;BME280;52474;52.236;5.114;2022-07-23T05:34:56;101989.03;;;15.95;100.00
59170;BME280;52474;52.236;5.114;2022-07-23T05:37:22;101995.78;;;15.99;100.00
59170;BME280;52474;52.236;5.114;2022-07-23T05:39:48;101997.47;;;15.91;100.00
59170;BME280;52474;52.236;5.114;2022-07-23T05:42:14;102001.78;;;15.82;100.00
59170;BME280;52474;52.236;5.114;2022-07-23T05:44:40;101987.00;;;15.68;100.00
59170;BME280;52474;52.236;5.114;2022-07-23T05:47:06;101999.69;;;15.76;100.00
59170;BME280;52474;52.236;5.114;2022-07-23T05:49:32;102011.78;;;15.89;100.00
59170;BME280;52474;52.236;5.114;2022-07-23T05:52:36;102002.78;;;15.81;100.00
59170;BME280;52474;52.236;5.114;2022-07-23T05:55:28;102007.97;;;15.82;100.00
59170;BME280;52474;52.236;5.114;2022-07-23T05:57:57;101978.53;;;15.63;100.00
59170;BME280;52474;52.236;5.114;2022-07-23T06:00:24;102008.44;;;15.87;100.00
59170;BME280;52474;52.236;5.114;2022-07-23T06:02:50;102014.34;;;15.91;100.00
59170;BME280;52474;52.236;5.114;2022-07-23T06:05:16;102011.94;;;15.88;100.00
59170;BME280;52474;52.236;5.114;2022-07-23T06:07:43;102013.94;;;15.96;100.00
59170;BME280;52474;52.236;5.114;2022-07-23T06:10:09;102019.56;;;16.02;100.00
59170;BME280;52474;52.236;5.114;2022-07-23T06:12:36;102010.88;;;16.10;100.00
59170;BME280;52474;52.236;5.114;2022-07-23T06:15:02;102006.34;;;16.10;100.00
59170;BME280;52474;52.236;5.114;2022-07-23T06:17:28;101992.28;;;16.18;100.00
59170;BME280;52474;52.236;5.114;2022-07-23T06:19:54;102002.88;;;16.29;100.00
59170;BME280;52474;52.236;5.114;2022-07-23T06:22:20;101995.09;;;16.36;100.00
59170;BME280;52474;52.236;5.114;2022-07-23T06:24:46;102011.31;;;16.44;100.00
59170;BME280;52474;52.236;5.114;2022-07-23T06:27:12;101999.78;;;17.57;100.00
59170;BME280;52474;52.236;5.114;2022-07-23T06:29:38;101992.59;;;22.73;100.00
59170;BME280;52474;52.236;5.114;2022-07-23T06:32:07;101985.06;;;25.15;90.29
59170;BME280;52474;52.236;5.114;2022-07-23T06:34:33;102005.16;;;26.77;89.75
59170;BME280;52474;52.236;5.114;2022-07-23T06:36:59;101983.16;;;27.70;81.57
59170;BME280;52474;52.236;5.114;2022-07-23T06:39:25;101993.81;;;28.92;74.50
59170;BME280;52474;52.236;5.114;2022-07-23T06:41:51;102015.50;;;29.24;60.98
59170;BME280;52474;52.236;5.114;2022-07-23T06:44:18;102010.44;;;29.27;57.36
59170;BME280;52474;52.236;5.114;2022-07-23T06:46:46;102004.69;;;29.84;58.57
59170;BME280;52474;52.236;5.114;2022-07-23T06:49:12;101987.91;;;27.36;62.98
59170;BME280;52474;52.236;5.114;2022-07-23T06:51:38;102013.16;;;24.30;82.07
59170;BME280;52474;52.236;5.114;2022-07-23T06:54:04;102004.09;;;22.53;93.91
59170;BME280;52474;52.236;5.114;2022-07-23T06:56:29;101998.63;;;21.52;100.00
59170;BME280;52474;52.236;5.114;2022-07-23T06:58:55;102017.91;;;21.25;100.00
59170;BME280;52474;52.236;5.114;2022-07-23T07:01:21;102000.13;;;25.53;82.42
59170;BME280;52474;52.236;5.114;2022-07-23T07:03:46;102007.22;;;26.95;75.68
59170;BME280;52474;52.236;5.114;2022-07-23T07:06:12;102010.81;;;26.82;68.65
59170;BME280;52474;52.236;5.114;2022-07-23T07:08:38;102005.41;;;23.69;86.88
59170;BME280;52474;52.236;5.114;2022-07-23T07:11:04;102000.69;;;23.41;91.62
59170;BME280;52474;52.236;5.114;2022-07-23T07:13:30;102010.75;;;23.98;87.13
59170;BME280;52474;52.236;5.114;2022-07-23T07:15:55;102009.50;;;23.65;87.97
59170;BME280;52474;52.236;5.114;2022-07-23T07:18:21;102007.47;;;27.58;72.55
59170;BME280;52474;52.236;5.114;2022-07-23T07:20:47;102021.31;;;30.13;60.87
59170;BME280;52474;52.236;5.114;2022-07-23T07:23:13;102015.56;;;31.27;54.89
59170;BME280;52474;52.236;5.114;2022-07-23T07:25:38;102028.28;;;31.33;52.37
59170;BME280;52474;52.236;5.114;2022-07-23T07:28:04;102033.09;;;30.91;49.27
59170;BME280;52474;52.236;5.114;2022-07-23T07:30:29;102036.25;;;31.23;50.25
59170;BME280;52474;52.236;5.114;2022-07-23T07:32:55;102036.88;;;32.06;44.77
59170;BME280;52474;52.236;5.114;2022-07-23T07:35:21;102026.19;;;31.00;44.57
59170;BME280;52474;52.236;5.114;2022-07-23T07:37:46;102038.22;;;32.03;42.97
59170;BME280;52474;52.236;5.114;2022-07-23T07:40:12;102047.34;;;31.80;41.82
59170;BME280;52474;52.236;5.114;2022-07-23T07:42:46;102042.66;;;32.89;42.14
59170;BME280;52474;52.236;5.114;2022-07-23T07:45:11;102040.78;;;33.72;39.65
59170;BME280;52474;52.236;5.114;2022-07-23T07:47:37;102029.72;;;34.16;40.66
59170;BME280;52474;52.236;5.114;2022-07-23T07:50:03;102025.88;;;33.24;39.47
59170;BME280;52474;52.236;5.114;2022-07-23T07:52:29;102031.75;;;34.63;37.74
59170;BME280;52474;52.236;5.114;2022-07-23T07:54:54;102039.94;;;34.58;37.17
59170;BME280;52474;52.236;5.114;2022-07-23T07:57:20;102046.00;;;33.74;38.78
59170;BME280;52474;52.236;5.114;2022-07-23T07:59:46;102047.06;;;34.54;36.29
59170;BME280;52474;52.236;5.114;2022-07-23T08:02:11;102029.31;;;34.35;36.15
59170;BME280;52474;52.236;5.114;2022-07-23T08:04:37;102048.84;;;34.66;36.91
59170;BME280;52474;52.236;5.114;2022-07-23T08:07:03;102044.94;;;34.61;36.38
59170;BME280;52474;52.236;5.114;2022-07-23T08:09:28;102052.53;;;35.29;34.23
59170;BME280;52474;52.236;5.114;2022-07-23T08:11:54;102046.00;;;35.51;34.88
59170;BME280;52474;52.236;5.114;2022-07-23T08:14:20;102042.81;;;35.16;35.45
59170;BME280;52474;52.236;5.114;2022-07-23T08:16:45;102040.25;;;35.04;34.70
59170;BME280;52474;52.236;5.114;2022-07-23T08:19:11;102040.66;;;35.23;33.66
59170;BME280;52474;52.236;5.114;2022-07-23T08:21:37;102039.03;;;36.21;34.29
59170;BME280;52474;52.236;5.114;2022-07-23T08:24:03;102039.03;;;36.21;33.17
59170;BME280;52474;52.236;5.114;2022-07-23T08:26:28;102029.81;;;35.59;33.49
59170;BME280;52474;52.236;5.114;2022-07-23T08:28:54;102041.25;;;36.70;34.21
59170;BME280;52474;52.236;5.114;2022-07-23T09:11:33;102041.78;;;36.83;30.46
59170;BME280;52474;52.236;5.114;2022-07-23T09:13:59;102053.03;;;37.07;31.38
59170;BME280;52474;52.236;5.114;2022-07-23T09:16:28;102053.34;;;36.90;31.12
59170;BME280;52474;52.236;5.114;2022-07-23T09:19:00;102050.88;;;36.83;30.99
59170;BME280;52474;52.236;5.114;2022-07-23T09:21:33;102055.50;;;35.90;32.44
59170;BME280;52474;52.236;5.114;2022-07-23T09:24:09;102054.44;;;36.07;33.80
59170;BME280;52474;52.236;5.114;2022-07-23T09:26:43;102039.84;;;35.23;32.04
59170;BME280;52474;52.236;5.114;2022-07-23T09:29:21;102057.78;;;36.09;31.26
59170;BME280;52474;52.236;5.114;2022-07-23T09:31:50;102041.78;;;36.47;31.82
59170;BME280;52474;52.236;5.114;2022-07-23T09:34:35;102049.94;;;35.60;33.97
59170;BME280;52474;52.236;5.114;2022-07-23T09:37:15;102046.03;;;35.03;33.12
59170;BME280;52474;52.236;5.114;2022-07-23T09:39:42;102039.50;;;35.82;33.38
59170;BME280;52474;52.236;5.114;2022-07-23T09:42:20;102036.91;;;34.97;33.48
59170;BME280;52474;52.236;5.114;2022-07-23T09:44:48;102051.88;;;35.69;34.01
59170;BME280;52474;52.236;5.114;2022-07-23T09:47:14;102042.91;;;36.46;31.36
59170;BME280;52474;52.236;5.114;2022-07-23T09:49:40;102052.00;;;36.72;33.10
59170;BME280;52474;52.236;5.114;2022-07-23T09:52:29;102045.03;;;35.93;32.10
59170;BME280;52474;52.236;5.114;2022-07-23T09:54:59;102040.19;;;34.94;34.30
59170;BME280;52474;52.236;5.114;2022-07-23T09:57:26;102049.47;;;35.20;34.78
59170;BME280;52474;52.236;5.114;2022-07-23T09:59:53;102051.19;;;36.36;33.59
59170;BME280;52474;52.236;5.114;2022-07-23T10:02:23;102054.88;;;35.63;33.82
59170;BME280;52474;52.236;5.114;2022-07-23T10:05:12;102045.81;;;35.67;35.38
59170;BME280;52474;52.236;5.114;2022-07-23T10:08:02;102049.38;;;35.05;35.03
59170;BME280;52474;52.236;5.114;2022-07-23T10:10:46;102050.34;;;36.15;33.43
59170;BME280;52474;52.236;5.114;2022-07-23T10:13:38;102053.44;;;35.45;33.96
59170;BME280;52474;52.236;5.114;2022-07-23T10:16:11;102051.94;;;35.22;33.52
59170;BME280;52474;52.236;5.114;2022-07-23T10:18:37;102050.94;;;34.91;34.85
59170;BME280;52474;52.236;5.114;2022-07-23T10:21:06;102054.47;;;34.86;34.20
59170;BME280;52474;52.236;5.114;2022-07-23T10:23:45;102045.81;;;34.35;34.25
59170;BME280;52474;52.236;5.114;2022-07-23T10:26:41;102047.16;;;34.65;34.50
59170;BME280;52474;52.236;5.114;2022-07-23T10:32:00;102041.44;;;35.72;32.73
59170;BME280;52474;52.236;5.114;2022-07-23T10:34:40;102043.19;;;34.88;35.42
59170;BME280;52474;52.236;5.114;2022-07-23T10:37:11;102052.56;;;34.22;34.30
59170;BME280;52474;52.236;5.114;2022-07-23T10:39:38;102049.03;;;32.94;35.44
59170;BME280;52474;52.236;5.114;2022-07-23T10:42:14;102045.69;;;33.48;37.08
59170;BME280;52474;52.236;5.114;2022-07-23T10:44:45;102039.84;;;34.48;38.00
59170;BME280;52474;52.236;5.114;2022-07-23T10:47:12;102024.03;;;35.76;35.68
59170;BME280;52474;52.236;5.114;2022-07-23T10:58:01;102034.25;;;35.76;34.16
59170;BME280;52474;52.236;5.114;2022-07-23T11:00:29;102029.91;;;34.74;36.23
59170;BME280;52474;52.236;5.114;2022-07-23T11:02:58;102034.44;;;34.96;34.97
59170;BME280;52474;52.236;5.114;2022-07-23T11:05:26;102040.72;;;34.86;34.02
59170;BME280;52474;52.236;5.114;2022-07-23T11:31:59;102037.66;;;33.91;36.81
59170;BME280;52474;52.236;5.114;2022-07-23T11:37:01;102043.56;;;33.77;35.62
59170;BME280;52474;52.236;5.114;2022-07-23T11:39:29;102033.22;;;32.00;36.86
59170;BME280;52474;52.236;5.114;2022-07-23T11:41:56;102041.50;;;32.68;38.23
59170;BME280;52474;52.236;5.114;2022-07-23T11:44:28;102032.34;;;33.13;37.78
59170;BME280;52474;52.236;5.114;2022-07-23T11:46:59;102028.13;;;33.98;37.70
59170;BME280;52474;52.236;5.114;2022-07-23T11:49:25;102031.94;;;33.48;36.71
59170;BME280;52474;52.236;5.114;2022-07-23T11:52:13;102032.00;;;33.31;39.04
59170;BME280;52474;52.236;5.114;2022-07-23T11:54:49;102027.50;;;33.91;37.38
59170;BME280;52474;52.236;5.114;2022-07-23T11:57:15;102023.84;;;34.40;35.97
59170;BME280;52474;52.236;5.114;2022-07-23T11:59:40;102024.88;;;33.52;38.18
59170;BME280;52474;52.236;5.114;2022-07-23T12:02:07;102023.34;;;33.01;35.83
59170;BME280;52474;52.236;5.114;2022-07-23T12:04:47;102025.06;;;33.68;38.58
59170;BME280;52474;52.236;5.114;2022-07-23T12:07:34;102005.50;;;33.91;38.36
59170;BME280;52474;52.236;5.114;2022-07-23T12:10:03;102024.69;;;34.46;37.31
59170;BME280;52474;52.236;5.114;2022-07-23T12:12:55;102002.84;;;33.25;37.30
59170;BME280;52474;52.236;5.114;2022-07-23T12:15:42;102020.31;;;32.80;37.46
59170;BME280;52474;52.236;5.114;2022-07-23T12:18:11;102009.41;;;32.85;37.05
59170;BME280;52474;52.236;5.114;2022-07-23T12:20:40;102003.38;;;30.94;37.43
59170;BME280;52474;52.236;5.114;2022-07-23T12:23:08;102010.56;;;30.53;41.24
59170;BME280;52474;52.236;5.114;2022-07-23T12:25:37;102002.59;;;30.52;42.27
59170;BME280;52474;52.236;5.114;2022-07-23T12:28:09;102013.53;;;30.52;40.25
59170;BME280;52474;52.236;5.114;2022-07-23T12:30:47;101995.47;;;30.39;41.17
59170;BME280;52474;52.236;5.114;2022-07-23T12:33:24;102004.09;;;31.54;43.30
59170;BME280;52474;52.236;5.114;2022-07-23T12:35:50;102005.00;;;32.17;40.80
59170;BME280;52474;52.236;5.114;2022-07-23T12:38:20;102003.00;;;32.29;41.35
59170;BME280;52474;52.236;5.114;2022-07-23T12:40:51;102006.25;;;32.43;41.92
59170;BME280;52474;52.236;5.114;2022-07-23T12:43:25;101994.06;;;32.50;41.08
59170;BME280;52474;52.236;5.114;2022-07-23T12:48:33;101980.56;;;33.22;38.65
59170;BME280;52474;52.236;5.114;2022-07-23T12:51:08;102002.09;;;32.06;40.19
59170;BME280;52474;52.236;5.114;2022-07-23T12:53:41;101998.81;;;31.93;42.54
59170;BME280;52474;52.236;5.114;2022-07-23T12:56:19;101975.69;;;32.00;40.94
59170;BME280;52474;52.236;5.114;2022-07-23T12:58:54;102000.94;;;32.02;40.08
59170;BME280;52474;52.236;5.114;2022-07-23T13:04:08;101974.94;;;31.76;42.25
59170;BME280;52474;52.236;5.114;2022-07-23T13:06:42;101983.69;;;31.61;42.08
59170;BME280;52474;52.236;5.114;2022-07-23T13:09:11;101980.50;;;31.12;42.10
59170;BME280;52474;52.236;5.114;2022-07-23T13:11:38;101992.56;;;31.52;43.67
59170;BME280;52474;52.236;5.114;2022-07-23T13:14:05;101988.59;;;30.48;38.64
59170;BME280;52474;52.236;5.114;2022-07-23T13:16:31;101995.25;;;30.76;39.48
59170;BME280;52474;52.236;5.114;2022-07-23T13:18:58;101984.56;;;30.63;42.93
59170;BME280;52474;52.236;5.114;2022-07-23T13:21:25;101987.88;;;29.99;41.08
59170;BME280;52474;52.236;5.114;2022-07-23T13:23:51;101985.66;;;30.85;42.41
59170;BME280;52474;52.236;5.114;2022-07-23T13:26:17;101994.56;;;30.92;42.52
59170;BME280;52474;52.236;5.114;2022-07-23T13:28:43;101984.41;;;30.34;40.24
59170;BME280;52474;52.236;5.114;2022-07-23T13:31:09;101989.09;;;29.36;42.40
59170;BME280;52474;52.236;5.114;2022-07-23T13:33:35;101994.41;;;29.31;41.46
59170;BME280;52474;52.236;5.114;2022-07-23T13:36:01;101982.63;;;28.75;40.20
59170;BME280;52474;52.236;5.114;2022-07-23T13:38:27;101990.38;;;29.70;44.24
59170;BME280;52474;52.236;5.114;2022-07-23T13:40:54;101977.16;;;29.98;43.14
59170;BME280;52474;52.236;5.114;2022-07-23T13:43:22;101970.25;;;30.37;44.41
59170;BME280;52474;52.236;5.114;2022-07-23T13:45:49;101993.25;;;29.75;43.36
59170;BME280;52474;52.236;5.114;2022-07-23T13:48:15;101973.91;;;30.19;42.53
59170;BME280;52474;52.236;5.114;2022-07-23T13:50:42;101979.94;;;29.49;40.43
59170;BME280;52474;52.236;5.114;2022-07-23T13:53:11;101970.31;;;29.28;42.84
59170;BME280;52474;52.236;5.114;2022-07-23T13:55:38;101945.13;;;29.93;42.41
59170;BME280;52474;52.236;5.114;2022-07-23T13:58:09;101973.63;;;30.74;43.71
59170;BME280;52474;52.236;5.114;2022-07-23T14:00:39;101980.38;;;29.94;41.51
59170;BME280;52474;52.236;5.114;2022-07-23T14:03:05;101979.63;;;29.57;44.43
59170;BME280;52474;52.236;5.114;2022-07-23T14:05:32;101975.44;;;29.54;44.14
59170;BME280;52474;52.236;5.114;2022-07-23T14:07:58;101972.72;;;29.36;44.37
59170;BME280;52474;52.236;5.114;2022-07-23T14:10:25;101979.34;;;28.66;43.77
59170;BME280;52474;52.236;5.114;2022-07-23T14:12:52;101976.41;;;28.68;44.84